sensor_id;sensor_type;location;lat;lon;timestamp;P1;durP1;ratioP1;P2;durP2;ratioP2
40611;SDS011;26317;44.894;20.286;2024-02-23T00:01:29;23.42;;;11.70;;
40611;SDS011;26317;44.894;20.286;2024-02-23T00:04:01;16.48;;;11.38;;
40611;SDS011;26317;44.894;20.286;2024-02-23T00:06:55;19.10;;;10.30;;
40611;SDS011;26317;44.894;20.286;2024-02-23T00:09:36;13.27;;;9.25;;
40611;SDS011;26317;44.894;20.286;2024-02-23T00:12:18;15.63;;;9.93;;
40611;SDS011;26317;44.894;20.286;2024-02-23T00:15:02;17.20;;;9.77;;
40611;SDS011;26317;44.894;20.286;2024-02-23T00:17:40;13.57;;;9.35;;
40611;SDS011;26317;44.894;20.286;2024-02-23T00:20:18;17.20;;;10.32;;
40611;SDS011;26317;44.894;20.286;2024-02-23T00:23:15;12.57;;;8.95;;
40611;SDS011;26317;44.894;20.286;2024-02-23T00:25:58;12.13;;;8.50;;
40611;SDS011;26317;44.894;20.286;2024-02-23T00:28:40;13.38;;;9.25;;
40611;SDS011;26317;44.894;20.286;2024-02-23T00:31:20;16.08;;;8.70;;
40611;SDS011;26317;44.894;20.286;2024-02-23T00:33:54;13.30;;;8.07;;
40611;SDS011;26317;44.894;20.286;2024-02-23T00:36:33;15.20;;;8.90;;
40611;SDS011;26317;44.894;20.286;2024-02-23T00:39:11;12.68;;;7.97;;
40611;SDS011;26317;44.894;20.286;2024-02-23T00:41:48;14.43;;;8.60;;
40611;SDS011;26317;44.894;20.286;2024-02-23T00:44:27;13.43;;;8.93;;
40611;SDS011;26317;44.894;20.286;2024-02-23T00:47:18;14.77;;;8.07;;
40611;SDS011;26317;44.894;20.286;2024-02-23T00:49:55;11.45;;;7.70;;
40611;SDS011;26317;44.894;20.286;2024-02-23T00:52:45;10.23;;;7.47;;
40611;SDS011;26317;44.894;20.286;2024-02-23T00:55:35;12.02;;;7.60;;
40611;SDS011;26317;44.894;20.286;2024-02-23T00:58:10;17.05;;;8.27;;
40611;SDS011;26317;44.894;20.286;2024-02-23T01:00:48;9.82;;;7.13;;
40611;SDS011;26317;44.894;20.286;2024-02-23T01:03:23;10.73;;;7.00;;
40611;SDS011;26317;44.894;20.286;2024-02-23T01:05:59;7.68;;;6.40;;
40611;SDS011;26317;44.894;20.286;2024-02-23T01:08:39;10.45;;;7.47;;
40611;SDS011;26317;44.894;20.286;2024-02-23T01:11:22;10.65;;;6.90;;
40611;SDS011;26317;44.894;20.286;2024-02-23T01:14:01;10.10;;;6.57;;
40611;SDS011;26317;44.894;20.286;2024-02-23T01:16:41;7.53;;;5.78;;
40611;SDS011;26317;44.894;20.286;2024-02-23T01:19:22;9.90;;;6.40;;
40611;SDS011;26317;44.894;20.286;2024-02-23T01:21:57;8.75;;;5.85;;
40611;SDS011;26317;44.894;20.286;2024-02-23T01:24:37;10.75;;;6.60;;
40611;SDS011;26317;44.894;20.286;2024-02-23T01:27:35;7.60;;;6.00;;
40611;SDS011;26317;44.894;20.286;2024-02-23T01:30:20;8.15;;;6.20;;
40611;SDS011;26317;44.894;20.286;2024-02-23T01:32:59;9.02;;;6.22;;
40611;SDS011;26317;44.894;20.286;2024-02-23T01:35:37;8.43;;;5.47;;
40611;SDS011;26317;44.894;20.286;2024-02-23T01:38:21;8.55;;;6.07;;
40611;SDS011;26317;44.894;20.286;2024-02-23T01:41:09;7.53;;;5.57;;
40611;SDS011;26317;44.894;20.286;2024-02-23T01:43:57;8.18;;;5.90;;
40611;SDS011;26317;44.894;20.286;2024-02-23T01:46:46;7.78;;;5.80;;
40611;SDS011;26317;44.894;20.286;2024-02-23T01:49:25;10.77;;;6.95;;
40611;SDS011;26317;44.894;20.286;2024-02-23T01:52:10;10.52;;;7.03;;
40611;SDS011;26317;44.894;20.286;2024-02-23T01:55:00;6.78;;;6.07;;
40611;SDS011;26317;44.894;20.286;2024-02-23T01:57:45;9.80;;;6.60;;
40611;SDS011;26317;44.894;20.286;2024-02-23T02:00:28;11.07;;;7.32;;
40611;SDS011;26317;44.894;20.286;2024-02-23T02:03:11;9.25;;;6.88;;
40611;SDS011;26317;44.894;20.286;2024-02-23T02:05:51;8.73;;;6.35;;
40611;SDS011;26317;44.894;20.286;2024-02-23T02:08:37;8.02;;;5.72;;
40611;SDS011;26317;44.894;20.286;2024-02-23T02:11:12;9.55;;;6.55;;
40611;SDS011;26317;44.894;20.286;2024-02-23T02:13:55;9.52;;;5.72;;
40611;SDS011;26317;44.894;20.286;2024-02-23T02:16:46;7.40;;;5.63;;
40611;SDS011;26317;44.894;20.286;2024-02-23T02:19:20;7.95;;;5.57;;
40611;SDS011;26317;44.894;20.286;2024-02-23T02:22:03;8.98;;;5.90;;
40611;SDS011;26317;44.894;20.286;2024-02-23T02:24:39;9.07;;;6.15;;
40611;SDS011;26317;44.894;20.286;2024-02-23T02:27:18;7.30;;;5.35;;
40611;SDS011;26317;44.894;20.286;2024-02-23T02:30:13;8.68;;;5.60;;
40611;SDS011;26317;44.894;20.286;2024-02-23T02:32:54;11.80;;;6.03;;
40611;SDS011;26317;44.894;20.286;2024-02-23T02:35:33;7.17;;;5.47;;
40611;SDS011;26317;44.894;20.286;2024-02-23T02:38:08;8.35;;;5.40;;
40611;SDS011;26317;44.894;20.286;2024-02-23T02:40:46;5.97;;;5.25;;
40611;SDS011;26317;44.894;20.286;2024-02-23T02:43:31;7.05;;;5.25;;
40611;SDS011;26317;44.894;20.286;2024-02-23T02:46:07;6.28;;;4.88;;
40611;SDS011;26317;44.894;20.286;2024-02-23T02:48:42;6.95;;;5.30;;
40611;SDS011;26317;44.894;20.286;2024-02-23T02:51:19;7.32;;;5.28;;
40611;SDS011;26317;44.894;20.286;2024-02-23T02:53:54;6.10;;;5.35;;
40611;SDS011;26317;44.894;20.286;2024-02-23T02:56:30;6.35;;;5.50;;
40611;SDS011;26317;44.894;20.286;2024-02-23T02:59:06;5.80;;;4.95;;
40611;SDS011;26317;44.894;20.286;2024-02-23T03:01:41;5.65;;;4.60;;
40611;SDS011;26317;44.894;20.286;2024-02-23T03:04:36;7.20;;;5.35;;
40611;SDS011;26317;44.894;20.286;2024-02-23T03:07:18;5.75;;;5.05;;
40611;SDS011;26317;44.894;20.286;2024-02-23T03:09:58;6.72;;;4.65;;
40611;SDS011;26317;44.894;20.286;2024-02-23T03:12:47;9.02;;;5.05;;
40611;SDS011;26317;44.894;20.286;2024-02-23T03:15:24;5.43;;;4.88;;
40611;SDS011;26317;44.894;20.286;2024-02-23T03:18:09;6.75;;;5.55;;
40611;SDS011;26317;44.894;20.286;2024-02-23T03:20:58;6.15;;;4.95;;
40611;SDS011;26317;44.894;20.286;2024-02-23T03:23:34;6.85;;;4.78;;
40611;SDS011;26317;44.894;20.286;2024-02-23T03:26:13;6.03;;;4.75;;
40611;SDS011;26317;44.894;20.286;2024-02-23T03:28:51;5.30;;;4.60;;
40611;SDS011;26317;44.894;20.286;2024-02-23T03:31:23;5.07;;;4.38;;
40611;SDS011;26317;44.894;20.286;2024-02-23T03:34:01;7.07;;;4.95;;
40611;SDS011;26317;44.894;20.286;2024-02-23T03:36:59;5.95;;;4.57;;
40611;SDS011;26317;44.894;20.286;2024-02-23T03:39:38;5.05;;;4.53;;
40611;SDS011;26317;44.894;20.286;2024-02-23T03:42:21;6.05;;;4.30;;
40611;SDS011;26317;44.894;20.286;2024-02-23T03:44:58;5.45;;;4.85;;
40611;SDS011;26317;44.894;20.286;2024-02-23T03:47:38;5.97;;;4.97;;
40611;SDS011;26317;44.894;20.286;2024-02-23T03:50:27;6.00;;;4.28;;
40611;SDS011;26317;44.894;20.286;2024-02-23T03:53:07;5.53;;;4.65;;
40611;SDS011;26317;44.894;20.286;2024-02-23T03:55:41;5.45;;;4.43;;
40611;SDS011;26317;44.894;20.286;2024-02-23T03:58:24;6.63;;;4.95;;
40611;SDS011;26317;44.894;20.286;2024-02-23T04:00:58;4.70;;;3.95;;
40611;SDS011;26317;44.894;20.286;2024-02-23T04:03:34;5.07;;;4.57;;
40611;SDS011;26317;44.894;20.286;2024-02-23T04:06:15;8.23;;;5.45;;
40611;SDS011;26317;44.894;20.286;2024-02-23T04:09:07;5.03;;;4.47;;
40611;SDS011;26317;44.894;20.286;2024-02-23T04:11:50;6.20;;;4.90;;
40611;SDS011;26317;44.894;20.286;2024-02-23T04:14:44;5.82;;;4.80;;
40611;SDS011;26317;44.894;20.286;2024-02-23T04:17:24;5.68;;;4.93;;
40611;SDS011;26317;44.894;20.286;2024-02-23T04:20:09;7.15;;;4.55;;
40611;SDS011;26317;44.894;20.286;2024-02-23T04:22:50;4.82;;;4.15;;
40611;SDS011;26317;44.894;20.286;2024-02-23T04:28:10;5.10;;;4.53;;
40611;SDS011;26317;44.894;20.286;2024-02-23T04:30:53;5.15;;;4.05;;
40611;SDS011;26317;44.894;20.286;2024-02-23T04:33:31;5.40;;;4.45;;
40611;SDS011;26317;44.894;20.286;2024-02-23T04:36:07;7.45;;;4.28;;
40611;SDS011;26317;44.894;20.286;2024-02-23T04:38:45;4.97;;;4.47;;
40611;SDS011;26317;44.894;20.286;2024-02-23T04:41:27;4.93;;;3.95;;
40611;SDS011;26317;44.894;20.286;2024-02-23T04:44:05;4.90;;;4.18;;
40611;SDS011;26317;44.894;20.286;2024-02-23T04:46:43;6.97;;;4.13;;
40611;SDS011;26317;44.894;20.286;2024-02-23T04:49:23;5.05;;;4.50;;
40611;SDS011;26317;44.894;20.286;2024-02-23T04:52:09;5.38;;;4.32;;
40611;SDS011;26317;44.894;20.286;2024-02-23T04:54:43;4.53;;;4.13;;
40611;SDS011;26317;44.894;20.286;2024-02-23T04:57:40;7.10;;;4.88;;
40611;SDS011;26317;44.894;20.286;2024-02-23T05:00:18;5.18;;;4.50;;
40611;SDS011;26317;44.894;20.286;2024-02-23T05:03:08;7.45;;;4.55;;
40611;SDS011;26317;44.894;20.286;2024-02-23T05:06:03;5.90;;;4.75;;
40611;SDS011;26317;44.894;20.286;2024-02-23T05:08:43;6.25;;;4.28;;
40611;SDS011;26317;44.894;20.286;2024-02-23T05:11:26;5.82;;;4.40;;
40611;SDS011;26317;44.894;20.286;2024-02-23T05:14:02;6.00;;;4.03;;
40611;SDS011;26317;44.894;20.286;2024-02-23T05:16:53;7.88;;;4.63;;
40611;SDS011;26317;44.894;20.286;2024-02-23T05:19:32;5.00;;;4.30;;
40611;SDS011;26317;44.894;20.286;2024-02-23T05:22:09;5.13;;;4.28;;
40611;SDS011;26317;44.894;20.286;2024-02-23T05:24:50;8.18;;;4.50;;
40611;SDS011;26317;44.894;20.286;2024-02-23T05:27:26;5.50;;;4.53;;
40611;SDS011;26317;44.894;20.286;2024-02-23T05:30:08;8.07;;;4.80;;
40611;SDS011;26317;44.894;20.286;2024-02-23T05:32:49;7.53;;;4.57;;
40611;SDS011;26317;44.894;20.286;2024-02-23T05:35:28;7.45;;;5.05;;
40611;SDS011;26317;44.894;20.286;2024-02-23T05:38:12;10.00;;;5.43;;
40611;SDS011;26317;44.894;20.286;2024-02-23T05:40:47;6.43;;;4.60;;
40611;SDS011;26317;44.894;20.286;2024-02-23T05:43:23;9.95;;;5.05;;
40611;SDS011;26317;44.894;20.286;2024-02-23T05:46:03;8.13;;;4.80;;
40611;SDS011;26317;44.894;20.286;2024-02-23T05:48:44;8.10;;;5.22;;
40611;SDS011;26317;44.894;20.286;2024-02-23T05:51:29;8.00;;;6.30;;
40611;SDS011;26317;44.894;20.286;2024-02-23T05:54:17;8.07;;;5.13;;
40611;SDS011;26317;44.894;20.286;2024-02-23T05:56:54;6.10;;;5.00;;
40611;SDS011;26317;44.894;20.286;2024-02-23T05:59:35;8.73;;;5.55;;
40611;SDS011;26317;44.894;20.286;2024-02-23T06:02:28;8.38;;;5.20;;
40611;SDS011;26317;44.894;20.286;2024-02-23T06:05:08;6.82;;;5.45;;
40611;SDS011;26317;44.894;20.286;2024-02-23T06:07:58;9.02;;;5.82;;
40611;SDS011;26317;44.894;20.286;2024-02-23T06:10:42;7.78;;;6.20;;
40611;SDS011;26317;44.894;20.286;2024-02-23T06:13:21;7.38;;;5.95;;
40611;SDS011;26317;44.894;20.286;2024-02-23T06:15:57;8.45;;;5.70;;
40611;SDS011;26317;44.894;20.286;2024-02-23T06:18:43;10.82;;;5.82;;
40611;SDS011;26317;44.894;20.286;2024-02-23T06:21:19;9.52;;;5.80;;
40611;SDS011;26317;44.894;20.286;2024-02-23T06:23:58;5.90;;;5.05;;
40611;SDS011;26317;44.894;20.286;2024-02-23T06:26:39;7.97;;;4.88;;
40611;SDS011;26317;44.894;20.286;2024-02-23T06:29:20;7.20;;;4.80;;
40611;SDS011;26317;44.894;20.286;2024-02-23T06:32:00;8.93;;;4.85;;
40611;SDS011;26317;44.894;20.286;2024-02-23T06:34:46;8.95;;;4.47;;
40611;SDS011;26317;44.894;20.286;2024-02-23T06:37:18;7.75;;;5.32;;
40611;SDS011;26317;44.894;20.286;2024-02-23T06:39:51;5.85;;;4.50;;
40611;SDS011;26317;44.894;20.286;2024-02-23T06:42:34;6.90;;;4.82;;
40611;SDS011;26317;44.894;20.286;2024-02-23T06:45:06;8.40;;;5.22;;
40611;SDS011;26317;44.894;20.286;2024-02-23T06:47:57;10.55;;;5.85;;
40611;SDS011;26317;44.894;20.286;2024-02-23T06:50:47;7.18;;;4.40;;
40611;SDS011;26317;44.894;20.286;2024-02-23T06:53:20;6.95;;;4.38;;
40611;SDS011;26317;44.894;20.286;2024-02-23T06:55:59;5.97;;;5.05;;
40611;SDS011;26317;44.894;20.286;2024-02-23T06:58:52;5.50;;;4.82;;
40611;SDS011;26317;44.894;20.286;2024-02-23T07:01:28;7.32;;;4.93;;
40611;SDS011;26317;44.894;20.286;2024-02-23T07:04:08;6.50;;;4.70;;
40611;SDS011;26317;44.894;20.286;2024-02-23T07:06:52;7.70;;;5.18;;
40611;SDS011;26317;44.894;20.286;2024-02-23T07:09:50;6.53;;;4.78;;
40611;SDS011;26317;44.894;20.286;2024-02-23T07:12:29;8.43;;;5.78;;
40611;SDS011;26317;44.894;20.286;2024-02-23T07:15:02;5.60;;;4.35;;
40611;SDS011;26317;44.894;20.286;2024-02-23T07:17:42;8.48;;;5.18;;
40611;SDS011;26317;44.894;20.286;2024-02-23T07:20:17;10.18;;;5.35;;
40611;SDS011;26317;44.894;20.286;2024-02-23T07:22:53;10.05;;;5.50;;
40611;SDS011;26317;44.894;20.286;2024-02-23T07:25:39;7.85;;;5.47;;
40611;SDS011;26317;44.894;20.286;2024-02-23T07:28:23;10.00;;;4.80;;
40611;SDS011;26317;44.894;20.286;2024-02-23T07:31:03;8.05;;;5.90;;
40611;SDS011;26317;44.894;20.286;2024-02-23T07:33:45;12.05;;;5.85;;
40611;SDS011;26317;44.894;20.286;2024-02-23T07:36:20;10.30;;;6.00;;
40611;SDS011;26317;44.894;20.286;2024-02-23T07:39:03;8.43;;;5.60;;
40611;SDS011;26317;44.894;20.286;2024-02-23T07:41:56;8.40;;;6.00;;
40611;SDS011;26317;44.894;20.286;2024-02-23T07:44:30;9.77;;;5.25;;
40611;SDS011;26317;44.894;20.286;2024-02-23T07:47:12;8.70;;;6.68;;
40611;SDS011;26317;44.894;20.286;2024-02-23T07:49:47;6.45;;;4.95;;
40611;SDS011;26317;44.894;20.286;2024-02-23T07:52:49;7.10;;;5.47;;
40611;SDS011;26317;44.894;20.286;2024-02-23T07:55:37;12.98;;;5.35;;
40611;SDS011;26317;44.894;20.286;2024-02-23T07:58:17;10.63;;;5.55;;
40611;SDS011;26317;44.894;20.286;2024-02-23T08:00:56;6.50;;;5.35;;
40611;SDS011;26317;44.894;20.286;2024-02-23T08:03:38;8.35;;;5.70;;
40611;SDS011;26317;44.894;20.286;2024-02-23T08:06:26;8.98;;;5.60;;
40611;SDS011;26317;44.894;20.286;2024-02-23T08:09:04;7.05;;;5.32;;
40611;SDS011;26317;44.894;20.286;2024-02-23T08:12:01;9.98;;;5.70;;
40611;SDS011;26317;44.894;20.286;2024-02-23T08:14:37;5.90;;;5.20;;
40611;SDS011;26317;44.894;20.286;2024-02-23T08:17:27;6.85;;;5.15;;
40611;SDS011;26317;44.894;20.286;2024-02-23T08:20:06;7.60;;;5.78;;
40611;SDS011;26317;44.894;20.286;2024-02-23T08:22:45;7.13;;;4.90;;
40611;SDS011;26317;44.894;20.286;2024-02-23T08:25:24;6.40;;;4.63;;
40611;SDS011;26317;44.894;20.286;2024-02-23T08:28:11;8.27;;;5.10;;
40611;SDS011;26317;44.894;20.286;2024-02-23T08:33:26;6.60;;;4.85;;
40611;SDS011;26317;44.894;20.286;2024-02-23T08:36:16;4.88;;;4.38;;
40611;SDS011;26317;44.894;20.286;2024-02-23T08:38:55;4.95;;;4.38;;
40611;SDS011;26317;44.894;20.286;2024-02-23T08:41:39;5.47;;;4.75;;
40611;SDS011;26317;44.894;20.286;2024-02-23T08:44:29;6.82;;;4.28;;
40611;SDS011;26317;44.894;20.286;2024-02-23T08:47:13;5.60;;;4.85;;
40611;SDS011;26317;44.894;20.286;2024-02-23T08:49:50;9.95;;;4.40;;
40611;SDS011;26317;44.894;20.286;2024-02-23T08:52:31;10.88;;;8.02;;
40611;SDS011;26317;44.894;20.286;2024-02-23T08:55:17;7.82;;;6.10;;
40611;SDS011;26317;44.894;20.286;2024-02-23T08:57:51;8.45;;;5.75;;
40611;SDS011;26317;44.894;20.286;2024-02-23T09:00:40;6.53;;;5.25;;
40611;SDS011;26317;44.894;20.286;2024-02-23T09:03:19;5.65;;;4.15;;
40611;SDS011;26317;44.894;20.286;2024-02-23T09:06:04;5.15;;;4.20;;
40611;SDS011;26317;44.894;20.286;2024-02-23T09:08:40;6.53;;;4.85;;
40611;SDS011;26317;44.894;20.286;2024-02-23T09:11:26;6.47;;;4.43;;
40611;SDS011;26317;44.894;20.286;2024-02-23T09:14:01;6.63;;;4.85;;
40611;SDS011;26317;44.894;20.286;2024-02-23T09:16:50;11.32;;;6.65;;
40611;SDS011;26317;44.894;20.286;2024-02-23T09:19:24;8.88;;;4.45;;
40611;SDS011;26317;44.894;20.286;2024-02-23T09:21:59;5.28;;;4.35;;
40611;SDS011;26317;44.894;20.286;2024-02-23T09:24:39;6.28;;;4.50;;
40611;SDS011;26317;44.894;20.286;2024-02-23T09:27:15;12.40;;;6.30;;
40611;SDS011;26317;44.894;20.286;2024-02-23T09:32:40;5.15;;;4.10;;
40611;SDS011;26317;44.894;20.286;2024-02-23T09:35:20;5.18;;;4.20;;
40611;SDS011;26317;44.894;20.286;2024-02-23T09:37:55;5.57;;;4.53;;
40611;SDS011;26317;44.894;20.286;2024-02-23T09:40:31;15.07;;;4.47;;
40611;SDS011;26317;44.894;20.286;2024-02-23T09:43:13;8.18;;;4.60;;
40611;SDS011;26317;44.894;20.286;2024-02-23T09:46:08;6.07;;;4.57;;
40611;SDS011;26317;44.894;20.286;2024-02-23T09:48:47;5.93;;;4.55;;
40611;SDS011;26317;44.894;20.286;2024-02-23T09:51:26;7.93;;;4.03;;
40611;SDS011;26317;44.894;20.286;2024-02-23T09:54:10;8.45;;;4.10;;
40611;SDS011;26317;44.894;20.286;2024-02-23T09:56:48;4.07;;;3.45;;
40611;SDS011;26317;44.894;20.286;2024-02-23T09:59:30;5.57;;;3.95;;
40611;SDS011;26317;44.894;20.286;2024-02-23T10:02:11;5.40;;;4.40;;
40611;SDS011;26317;44.894;20.286;2024-02-23T10:05:04;4.90;;;3.45;;
40611;SDS011;26317;44.894;20.286;2024-02-23T10:08:01;4.07;;;3.67;;
40611;SDS011;26317;44.894;20.286;2024-02-23T10:10:51;6.68;;;4.45;;
40611;SDS011;26317;44.894;20.286;2024-02-23T10:13:34;5.00;;;3.67;;
40611;SDS011;26317;44.894;20.286;2024-02-23T10:16:09;4.85;;;3.60;;
40611;SDS011;26317;44.894;20.286;2024-02-23T10:18:46;5.32;;;3.17;;
40611;SDS011;26317;44.894;20.286;2024-02-23T10:21:25;4.80;;;3.20;;
40611;SDS011;26317;44.894;20.286;2024-02-23T10:24:01;3.22;;;2.85;;
40611;SDS011;26317;44.894;20.286;2024-02-23T10:26:37;10.02;;;6.38;;
40611;SDS011;26317;44.894;20.286;2024-02-23T10:29:13;9.13;;;6.25;;
40611;SDS011;26317;44.894;20.286;2024-02-23T10:31:57;7.80;;;4.88;;
40611;SDS011;26317;44.894;20.286;2024-02-23T10:34:32;6.68;;;5.20;;
40611;SDS011;26317;44.894;20.286;2024-02-23T10:37:19;7.55;;;4.40;;
40611;SDS011;26317;44.894;20.286;2024-02-23T10:40:04;4.28;;;3.65;;
40611;SDS011;26317;44.894;20.286;2024-02-23T10:42:43;6.78;;;4.38;;
40611;SDS011;26317;44.894;20.286;2024-02-23T10:45:26;8.15;;;4.32;;
40611;SDS011;26317;44.894;20.286;2024-02-23T10:50:54;4.35;;;3.70;;
40611;SDS011;26317;44.894;20.286;2024-02-23T10:53:39;7.85;;;4.03;;
40611;SDS011;26317;44.894;20.286;2024-02-23T10:56:23;4.88;;;3.42;;
40611;SDS011;26317;44.894;20.286;2024-02-23T10:59:04;4.88;;;4.43;;
40611;SDS011;26317;44.894;20.286;2024-02-23T11:01:37;5.55;;;3.70;;
40611;SDS011;26317;44.894;20.286;2024-02-23T11:04:14;5.75;;;3.83;;
40611;SDS011;26317;44.894;20.286;2024-02-23T11:06:52;5.70;;;3.15;;
40611;SDS011;26317;44.894;20.286;2024-02-23T11:09:33;6.03;;;3.88;;
40611;SDS011;26317;44.894;20.286;2024-02-23T11:12:13;7.65;;;4.18;;
40611;SDS011;26317;44.894;20.286;2024-02-23T11:15:02;6.38;;;4.60;;
40611;SDS011;26317;44.894;20.286;2024-02-23T11:17:49;8.05;;;5.30;;
40611;SDS011;26317;44.894;20.286;2024-02-23T11:20:22;6.43;;;4.55;;
40611;SDS011;26317;44.894;20.286;2024-02-23T11:23:12;8.10;;;3.78;;
40611;SDS011;26317;44.894;20.286;2024-02-23T11:26:18;6.00;;;4.72;;
40611;SDS011;26317;44.894;20.286;2024-02-23T11:29:09;4.18;;;3.78;;
40611;SDS011;26317;44.894;20.286;2024-02-23T11:31:52;5.32;;;3.97;;
40611;SDS011;26317;44.894;20.286;2024-02-23T11:34:39;6.57;;;4.55;;
40611;SDS011;26317;44.894;20.286;2024-02-23T11:37:44;5.80;;;4.15;;
40611;SDS011;26317;44.894;20.286;2024-02-23T11:40:25;6.32;;;3.75;;
40611;SDS011;26317;44.894;20.286;2024-02-23T11:43:12;5.82;;;4.10;;
40611;SDS011;26317;44.894;20.286;2024-02-23T11:45:53;5.45;;;3.38;;
40611;SDS011;26317;44.894;20.286;2024-02-23T11:48:29;8.55;;;3.50;;
40611;SDS011;26317;44.894;20.286;2024-02-23T11:51:07;6.07;;;3.10;;
40611;SDS011;26317;44.894;20.286;2024-02-23T11:53:49;7.00;;;3.88;;
40611;SDS011;26317;44.894;20.286;2024-02-23T11:56:30;4.55;;;4.00;;
40611;SDS011;26317;44.894;20.286;2024-02-23T11:59:20;8.32;;;3.38;;
40611;SDS011;26317;44.894;20.286;2024-02-23T12:01:59;9.23;;;3.83;;
40611;SDS011;26317;44.894;20.286;2024-02-23T12:07:31;11.60;;;3.70;;
40611;SDS011;26317;44.894;20.286;2024-02-23T12:10:25;8.23;;;3.90;;
40611;SDS011;26317;44.894;20.286;2024-02-23T12:13:04;8.63;;;4.00;;
40611;SDS011;26317;44.894;20.286;2024-02-23T12:18:42;6.45;;;3.92;;
40611;SDS011;26317;44.894;20.286;2024-02-23T12:21:28;5.30;;;3.17;;
40611;SDS011;26317;44.894;20.286;2024-02-23T12:24:11;6.53;;;3.60;;
40611;SDS011;26317;44.894;20.286;2024-02-23T12:26:55;5.30;;;3.35;;
40611;SDS011;26317;44.894;20.286;2024-02-23T12:29:38;6.63;;;3.20;;
40611;SDS011;26317;44.894;20.286;2024-02-23T12:32:19;7.25;;;3.15;;
40611;SDS011;26317;44.894;20.286;2024-02-23T12:35:02;8.98;;;3.65;;
40611;SDS011;26317;44.894;20.286;2024-02-23T12:37:50;5.57;;;3.20;;
40611;SDS011;26317;44.894;20.286;2024-02-23T12:40:47;3.53;;;3.08;;
40611;SDS011;26317;44.894;20.286;2024-02-23T12:43:35;5.55;;;3.95;;
40611;SDS011;26317;44.894;20.286;2024-02-23T12:46:16;10.90;;;3.55;;
40611;SDS011;26317;44.894;20.286;2024-02-23T12:48:56;6.05;;;4.60;;
40611;SDS011;26317;44.894;20.286;2024-02-23T12:51:41;13.90;;;4.05;;
40611;SDS011;26317;44.894;20.286;2024-02-23T12:54:22;6.35;;;3.50;;
40611;SDS011;26317;44.894;20.286;2024-02-23T12:57:03;3.88;;;3.42;;
40611;SDS011;26317;44.894;20.286;2024-02-23T12:59:38;6.22;;;3.70;;
40611;SDS011;26317;44.894;20.286;2024-02-23T13:02:21;13.93;;;2.85;;
40611;SDS011;26317;44.894;20.286;2024-02-23T13:05:07;3.97;;;2.72;;
40611;SDS011;26317;44.894;20.286;2024-02-23T13:07:50;5.32;;;3.25;;
40611;SDS011;26317;44.894;20.286;2024-02-23T13:10:23;3.65;;;2.78;;
40611;SDS011;26317;44.894;20.286;2024-02-23T13:13:03;5.70;;;3.40;;
40611;SDS011;26317;44.894;20.286;2024-02-23T13:15:44;3.92;;;2.65;;
40611;SDS011;26317;44.894;20.286;2024-02-23T13:18:25;3.03;;;2.40;;
40611;SDS011;26317;44.894;20.286;2024-02-23T13:21:06;4.25;;;2.88;;
40611;SDS011;26317;44.894;20.286;2024-02-23T13:23:45;6.10;;;3.28;;
40611;SDS011;26317;44.894;20.286;2024-02-23T13:26:22;3.58;;;2.85;;
40611;SDS011;26317;44.894;20.286;2024-02-23T13:29:03;6.05;;;2.88;;
40611;SDS011;26317;44.894;20.286;2024-02-23T13:31:39;11.15;;;3.13;;
40611;SDS011;26317;44.894;20.286;2024-02-23T13:34:17;6.97;;;3.58;;
40611;SDS011;26317;44.894;20.286;2024-02-23T13:36:58;9.35;;;3.63;;
40611;SDS011;26317;44.894;20.286;2024-02-23T13:39:34;5.50;;;3.25;;
40611;SDS011;26317;44.894;20.286;2024-02-23T13:42:12;8.70;;;3.30;;
40611;SDS011;26317;44.894;20.286;2024-02-23T13:44:53;8.00;;;2.97;;
40611;SDS011;26317;44.894;20.286;2024-02-23T13:47:31;4.25;;;2.83;;
40611;SDS011;26317;44.894;20.286;2024-02-23T13:50:13;9.02;;;3.78;;
40611;SDS011;26317;44.894;20.286;2024-02-23T13:52:55;7.47;;;3.13;;
40611;SDS011;26317;44.894;20.286;2024-02-23T13:55:29;5.78;;;2.88;;
40611;SDS011;26317;44.894;20.286;2024-02-23T13:58:16;4.15;;;2.83;;
40611;SDS011;26317;44.894;20.286;2024-02-23T14:00:50;4.88;;;2.70;;
40611;SDS011;26317;44.894;20.286;2024-02-23T14:03:26;3.45;;;2.45;;
40611;SDS011;26317;44.894;20.286;2024-02-23T14:06:30;4.97;;;3.35;;
40611;SDS011;26317;44.894;20.286;2024-02-23T14:09:23;3.78;;;3.00;;
40611;SDS011;26317;44.894;20.286;2024-02-23T14:12:00;5.68;;;3.90;;
40611;SDS011;26317;44.894;20.286;2024-02-23T14:14:48;5.05;;;3.20;;
40611;SDS011;26317;44.894;20.286;2024-02-23T14:17:31;5.03;;;3.20;;
40611;SDS011;26317;44.894;20.286;2024-02-23T14:20:10;4.43;;;2.78;;
40611;SDS011;26317;44.894;20.286;2024-02-23T14:22:58;7.68;;;3.55;;
40611;SDS011;26317;44.894;20.286;2024-02-23T14:25:36;8.88;;;3.13;;
40611;SDS011;26317;44.894;20.286;2024-02-23T14:28:17;9.13;;;3.58;;
40611;SDS011;26317;44.894;20.286;2024-02-23T14:30:53;4.00;;;2.92;;
40611;SDS011;26317;44.894;20.286;2024-02-23T14:33:36;14.32;;;3.78;;
40611;SDS011;26317;44.894;20.286;2024-02-23T14:36:21;4.75;;;3.08;;
40611;SDS011;26317;44.894;20.286;2024-02-23T14:39:14;6.22;;;2.75;;
40611;SDS011;26317;44.894;20.286;2024-02-23T14:42:03;7.15;;;2.97;;
40611;SDS011;26317;44.894;20.286;2024-02-23T14:44:40;5.50;;;3.13;;
40611;SDS011;26317;44.894;20.286;2024-02-23T14:47:28;4.28;;;3.33;;
40611;SDS011;26317;44.894;20.286;2024-02-23T14:50:18;11.35;;;3.17;;
40611;SDS011;26317;44.894;20.286;2024-02-23T14:52:59;5.57;;;3.25;;
40611;SDS011;26317;44.894;20.286;2024-02-23T14:55:33;7.75;;;3.50;;
40611;SDS011;26317;44.894;20.286;2024-02-23T14:58:45;6.72;;;3.28;;
40611;SDS011;26317;44.894;20.286;2024-02-23T15:01:22;12.13;;;3.35;;
40611;SDS011;26317;44.894;20.286;2024-02-23T15:04:04;5.45;;;3.63;;
40611;SDS011;26317;44.894;20.286;2024-02-23T15:06:48;12.25;;;3.40;;
40611;SDS011;26317;44.894;20.286;2024-02-23T15:09:27;8.88;;;2.88;;
40611;SDS011;26317;44.894;20.286;2024-02-23T15:12:07;18.77;;;3.03;;
40611;SDS011;26317;44.894;20.286;2024-02-23T15:14:59;11.40;;;3.28;;
40611;SDS011;26317;44.894;20.286;2024-02-23T15:17:42;9.18;;;3.58;;
40611;SDS011;26317;44.894;20.286;2024-02-23T15:20:29;6.72;;;3.00;;
40611;SDS011;26317;44.894;20.286;2024-02-23T15:23:04;7.83;;;4.27;;
40611;SDS011;26317;44.894;20.286;2024-02-23T15:25:45;10.13;;;6.25;;
40611;SDS011;26317;44.894;20.286;2024-02-23T15:28:37;11.63;;;6.43;;
40611;SDS011;26317;44.894;20.286;2024-02-23T15:31:28;7.75;;;6.47;;
40611;SDS011;26317;44.894;20.286;2024-02-23T15:34:08;8.45;;;7.30;;
40611;SDS011;26317;44.894;20.286;2024-02-23T15:36:50;16.27;;;10.45;;
40611;SDS011;26317;44.894;20.286;2024-02-23T15:39:27;14.25;;;8.55;;
40611;SDS011;26317;44.894;20.286;2024-02-23T15:42:08;12.05;;;5.95;;
40611;SDS011;26317;44.894;20.286;2024-02-23T15:44:46;7.00;;;4.95;;
40611;SDS011;26317;44.894;20.286;2024-02-23T15:47:33;9.35;;;5.55;;
40611;SDS011;26317;44.894;20.286;2024-02-23T15:50:08;13.93;;;5.30;;
40611;SDS011;26317;44.894;20.286;2024-02-23T15:53:05;15.18;;;6.25;;
40611;SDS011;26317;44.894;20.286;2024-02-23T15:55:44;10.75;;;4.72;;
40611;SDS011;26317;44.894;20.286;2024-02-23T15:58:19;11.50;;;4.90;;
40611;SDS011;26317;44.894;20.286;2024-02-23T16:03:27;9.50;;;4.40;;
40611;SDS011;26317;44.894;20.286;2024-02-23T16:06:04;14.02;;;4.57;;
40611;SDS011;26317;44.894;20.286;2024-02-23T16:08:44;17.27;;;5.57;;
40611;SDS011;26317;44.894;20.286;2024-02-23T16:11:25;7.82;;;5.22;;
40611;SDS011;26317;44.894;20.286;2024-02-23T16:14:07;10.23;;;4.93;;
40611;SDS011;26317;44.894;20.286;2024-02-23T16:16:45;25.20;;;15.30;;